createdAt,value
2023-01-20T00:05:04.074Z,37.50
2023-01-20T00:10:08.108Z,35.40
2023-01-20T00:15:15.416Z,35.50
2023-01-20T00:20:18.428Z,35.70
2023-01-20T00:25:21.107Z,33.40
2023-01-20T00:30:23.563Z,31.90
2023-01-20T00:35:26.891Z,31.60
2023-01-20T00:40:28.985Z,32.30
2023-01-20T00:45:31.125Z,29.40
2023-01-20T00:50:33.628Z,31.00
2023-01-20T00:55:35.696Z,31.40
2023-01-20T01:00:37.740Z,33.40
2023-01-20T01:05:40.081Z,31.50
2023-01-20T01:10:42.708Z,32.80
2023-01-20T01:15:58.579Z,24.40
2023-01-20T01:21:06.474Z,28.70
2023-01-20T01:26:08.512Z,30.90
2023-01-20T01:31:10.708Z,32.90
2023-01-20T01:36:14.646Z,27.00
2023-01-20T01:41:17.576Z,33.30
2023-01-20T01:46:22.230Z,29.20
2023-01-20T01:52:02.364Z,26.70
2023-01-20T01:57:07.519Z,31.80
2023-01-20T02:02:09.903Z,34.90
2023-01-20T02:07:18.307Z,37.70
2023-01-20T02:12:22.518Z,36.40
2023-01-20T02:17:38.221Z,41.70
2023-01-20T02:23:02.131Z,43.50
2023-01-20T02:28:18.219Z,43.00
2023-01-20T02:33:32.103Z,38.40
2023-01-20T02:39:01.113Z,43.30
2023-01-20T02:44:28.632Z,38.90
2023-01-20T02:49:41.087Z,34.90
2023-01-20T02:54:50.395Z,36.80
2023-01-20T02:59:57.146Z,35.70
2023-01-20T03:05:13.380Z,35.20
2023-01-20T03:10:19.168Z,35.40
2023-01-20T03:15:26.615Z,33.50
2023-01-20T03:20:28.665Z,38.60
2023-01-20T03:25:31.085Z,39.40
2023-01-20T03:30:33.147Z,38.50
2023-01-20T03:35:36.078Z,36.50
2023-01-20T03:40:48.666Z,37.50
2023-01-20T03:46:00.675Z,39.50
2023-01-20T03:51:17.676Z,37.70
2023-01-20T03:56:33.321Z,38.30
2023-01-20T04:01:39.838Z,41.30
2023-01-20T04:06:43.919Z,45.60
2023-01-20T04:11:46.560Z,42.30
2023-01-20T04:16:59.002Z,45.20
2023-01-20T04:22:07.871Z,35.70
2023-01-20T04:27:10.082Z,30.60
2023-01-20T04:32:12.722Z,40.70
2023-01-20T04:37:15.383Z,33.10
2023-01-20T04:42:17.787Z,43.00
2023-01-20T04:47:19.762Z,34.70
2023-01-20T04:52:22.117Z,56.10
2023-01-20T04:57:24.004Z,65.70
2023-01-20T05:02:26.213Z,66.30
2023-01-20T05:07:28.383Z,67.50
2023-01-20T05:12:31.079Z,43.50
2023-01-20T05:17:33.145Z,59.10
2023-01-20T05:22:35.141Z,66.80
2023-01-20T05:27:38.064Z,39.70
2023-01-20T05:32:46.746Z,53.00
2023-01-20T05:37:48.639Z,50.30
2023-01-20T05:42:53.174Z,49.00
2023-01-20T05:47:59.467Z,49.30
2023-01-20T05:53:02.111Z,44.60
2023-01-20T05:58:05.264Z,42.60
2023-01-20T06:03:10.049Z,45.90
2023-01-20T06:08:12.358Z,38.80
2023-01-20T06:13:14.249Z,26.40
2023-01-20T06:18:19.435Z,35.90
2023-01-20T06:23:21.771Z,36.40
2023-01-20T06:28:23.926Z,40.50
2023-01-20T06:33:25.888Z,40.20
2023-01-20T06:38:31.332Z,38.60
2023-01-20T06:43:35.394Z,34.90
2023-01-20T06:48:37.673Z,42.80
2023-01-20T06:53:40.370Z,34.30
2023-01-20T06:58:43.183Z,38.40
2023-01-20T07:03:45.166Z,39.20
2023-01-20T07:08:47.210Z,38.40
2023-01-20T07:13:49.625Z,39.90
2023-01-20T07:18:52.731Z,40.80
2023-01-20T07:23:55.604Z,40.30
2023-01-20T07:28:59.141Z,43.80
2023-01-20T07:34:01.169Z,42.20
2023-01-20T07:39:03.205Z,40.40
2023-01-20T07:44:05.366Z,43.00
2023-01-20T07:49:07.195Z,41.00
2023-01-20T07:54:11.722Z,41.80
2023-01-20T07:59:13.684Z,36.10
2023-01-20T08:04:15.842Z,36.40
2023-01-20T08:09:17.900Z,37.00
2023-01-20T08:14:20.372Z,33.00
2023-01-20T08:19:22.438Z,37.20
2023-01-20T08:24:24.466Z,32.20
2023-01-20T08:29:27.737Z,31.20
2023-01-20T08:34:30.668Z,25.40
2023-01-20T08:39:33.079Z,36.00
2023-01-20T08:44:35.554Z,34.40
2023-01-20T08:49:37.777Z,38.00
2023-01-20T08:54:39.907Z,35.10
2023-01-20T08:59:42.462Z,34.60
2023-01-20T09:04:44.734Z,35.90
2023-01-20T09:09:49.871Z,33.40
2023-01-20T09:14:51.717Z,27.60
2023-01-20T09:19:55.039Z,29.10
2023-01-20T09:24:57.252Z,32.10
2023-01-20T09:30:35.510Z,26.50
2023-01-20T09:35:41.279Z,26.30
2023-01-20T09:41:36.847Z,31.70
2023-01-20T09:47:21.932Z,34.70
2023-01-20T09:52:51.985Z,34.00
2023-01-20T09:58:48.843Z,33.70
2023-01-20T10:04:31.159Z,31.20
2023-01-20T10:09:44.702Z,30.00
2023-01-20T10:15:07.405Z,30.00
2023-01-20T10:20:39.403Z,32.40
2023-01-20T10:25:50.118Z,30.20
2023-01-20T10:30:52.300Z,29.10
2023-01-20T10:35:58.420Z,28.60
2023-01-20T10:41:13.974Z,28.00
2023-01-20T10:46:47.469Z,25.90
2023-01-20T10:52:11.313Z,29.40
2023-01-20T10:57:15.653Z,28.10
2023-01-20T11:02:22.907Z,30.60
2023-01-20T11:07:25.926Z,30.20
2023-01-20T11:12:32.407Z,29.30
2023-01-20T11:17:34.533Z,30.40
2023-01-20T11:22:37.978Z,26.00
2023-01-20T11:27:46.035Z,28.90
2023-01-20T11:33:08.712Z,26.90
2023-01-20T11:38:24.851Z,26.10
2023-01-20T11:43:34.589Z,22.30
2023-01-20T11:48:36.625Z,24.40
2023-01-20T11:53:39.284Z,24.30
2023-01-20T11:59:01.895Z,23.70
2023-01-20T12:04:23.430Z,21.50
2023-01-20T12:09:32.765Z,23.20
2023-01-20T12:14:43.568Z,23.60
2023-01-20T12:20:20.172Z,19.00
2023-01-20T12:25:27.129Z,19.30
2023-01-20T12:30:38.448Z,21.60
2023-01-20T12:35:56.500Z,19.20
2023-01-20T12:41:05.891Z,18.30
2023-01-20T12:46:38.200Z,14.80
2023-01-20T12:51:43.020Z,15.30
2023-01-20T12:57:00.436Z,17.60
2023-01-20T13:02:37.559Z,18.20
2023-01-20T13:08:18.760Z,19.00
2023-01-20T13:13:55.973Z,20.10
2023-01-20T13:19:30.294Z,20.40
2023-01-20T13:24:32.448Z,19.60
2023-01-20T13:29:34.840Z,21.10
2023-01-20T13:34:40.288Z,21.30
2023-01-20T13:39:51.475Z,21.50
2023-01-20T13:45:11.597Z,20.50
2023-01-20T13:50:38.760Z,22.60
2023-01-20T13:55:40.724Z,24.30
2023-01-20T14:00:44.749Z,23.20
2023-01-20T14:06:08.149Z,23.10
2023-01-20T14:11:26.771Z,25.00
2023-01-20T14:16:37.477Z,24.60
2023-01-20T14:21:40.814Z,25.00
2023-01-20T14:26:42.773Z,23.00
2023-01-20T14:31:46.220Z,27.00
2023-01-20T14:36:48.281Z,24.50
2023-01-20T14:41:55.593Z,27.90
2023-01-20T14:46:59.371Z,25.70
2023-01-20T14:52:02.319Z,25.10
2023-01-20T14:57:43.391Z,25.50
2023-01-20T15:03:10.947Z,25.70
2023-01-20T15:08:26.020Z,23.90
2023-01-20T15:13:31.216Z,24.80
2023-01-20T15:18:33.679Z,25.30
2023-01-20T15:23:38.288Z,24.60
2023-01-20T15:28:44.518Z,26.10
2023-01-20T15:33:48.549Z,23.90
2023-01-20T15:38:51.009Z,26.40
2023-01-20T15:43:52.882Z,25.80
2023-01-20T15:49:02.580Z,24.50
2023-01-20T15:54:07.359Z,22.20
2023-01-20T15:59:20.855Z,22.60
2023-01-20T16:04:24.297Z,22.90
2023-01-20T16:09:29.865Z,20.70
2023-01-20T16:14:34.564Z,21.70
2023-01-20T16:19:38.235Z,24.30
2023-01-20T16:24:41.574Z,27.00
2023-01-20T16:29:44.346Z,27.30
2023-01-20T16:34:46.856Z,25.30
2023-01-20T16:39:48.728Z,24.70
2023-01-20T16:44:52.934Z,23.60
2023-01-20T16:49:54.969Z,23.50
2023-01-20T16:54:57.084Z,26.10
2023-01-20T16:59:59.833Z,26.20
2023-01-20T17:05:02.284Z,23.70
2023-01-20T17:10:08.825Z,25.70
2023-01-20T17:15:11.952Z,22.60
2023-01-20T17:20:14.306Z,25.40
2023-01-20T17:25:20.126Z,28.70
2023-01-20T17:30:24.546Z,28.80
2023-01-20T17:35:28.067Z,28.90
2023-01-20T17:40:31.383Z,24.40
2023-01-20T17:45:35.025Z,27.90
2023-01-20T17:50:39.456Z,29.40
2023-01-20T17:55:42.033Z,32.80
2023-01-20T18:00:44.857Z,30.20
2023-01-20T18:05:47.280Z,29.70
2023-01-20T18:10:51.835Z,29.30
2023-01-20T18:15:53.989Z,32.40
2023-01-20T18:20:56.315Z,33.70
2023-01-20T18:25:59.016Z,30.40
2023-01-20T18:31:10.592Z,31.40
2023-01-20T18:36:15.987Z,30.30
2023-01-20T18:41:22.220Z,30.80
2023-01-20T18:46:25.977Z,32.90
2023-01-20T18:51:30.287Z,32.20
2023-01-20T18:56:34.623Z,31.00
2023-01-20T19:01:40.537Z,31.70
2023-01-20T19:06:44.844Z,30.70
2023-01-20T19:11:47.517Z,30.90
2023-01-20T19:16:51.692Z,32.70
2023-01-20T19:21:53.843Z,32.30
2023-01-20T19:26:58.722Z,32.50
2023-01-20T19:32:01.683Z,31.70
2023-01-20T19:37:03.514Z,32.00
2023-01-20T19:42:05.480Z,30.00
2023-01-20T19:47:07.728Z,29.00
2023-01-20T19:52:09.762Z,29.80
2023-01-20T19:57:11.987Z,29.60
2023-01-20T20:02:14.198Z,28.40
2023-01-20T20:07:16.317Z,29.20
2023-01-20T20:12:18.258Z,28.70
2023-01-20T20:17:21.264Z,29.50
2023-01-20T20:22:23.589Z,26.80
2023-01-20T20:27:26.834Z,30.10
2023-01-20T20:32:29.352Z,27.00
2023-01-20T20:37:31.470Z,25.60
2023-01-20T20:42:35.201Z,27.20
2023-01-20T20:47:37.372Z,24.10
2023-01-20T20:52:39.292Z,24.40
2023-01-20T20:57:41.591Z,24.20
2023-01-20T21:02:46.271Z,23.80
2023-01-20T21:07:48.995Z,23.20
2023-01-20T21:12:51.614Z,23.10
2023-01-20T21:17:53.819Z,24.50
2023-01-20T21:22:58.495Z,22.30
2023-01-20T21:28:00.653Z,22.50
2023-01-20T21:33:03.157Z,19.90
2023-01-20T21:38:08.692Z,19.70
2023-01-20T21:43:29.514Z,19.50
2023-01-20T21:48:51.074Z,18.70
2023-01-20T21:53:53.630Z,18.90
2023-01-20T21:58:56.296Z,16.80
2023-01-20T22:03:58.354Z,18.90
2023-01-20T22:09:00.425Z,17.80
2023-01-20T22:14:09.323Z,15.90
2023-01-20T22:19:14.763Z,16.90
2023-01-20T22:24:17.939Z,19.70
2023-01-20T22:29:20.190Z,18.10
2023-01-20T22:34:22.570Z,16.30
2023-01-20T22:39:24.913Z,18.60
2023-01-20T22:44:27.764Z,17.00
2023-01-20T22:49:30.005Z,18.60
2023-01-20T22:54:32.230Z,18.60
2023-01-20T22:59:39.554Z,18.90
2023-01-20T23:04:42.023Z,16.80
2023-01-20T23:09:46.426Z,17.00
2023-01-20T23:15:04.464Z,16.00
2023-01-20T23:20:08.597Z,18.10
2023-01-20T23:25:11.371Z,18.60
2023-01-20T23:30:13.656Z,16.10
2023-01-20T23:35:22.667Z,18.50
2023-01-20T23:40:27.571Z,16.50
2023-01-20T23:45:30.025Z,15.80
2023-01-20T23:50:32.395Z,17.00
2023-01-20T23:55:37.060Z,17.10
